createdAt,value
2023-05-24T00:01:51.797Z,102276.41
2023-05-24T00:04:19.937Z,102275.25
2023-05-24T00:06:48.489Z,102258.69
2023-05-24T00:09:15.503Z,102267.03
2023-05-24T00:11:42.501Z,102263.31
2023-05-24T00:14:09.577Z,102271.09
2023-05-24T00:16:37.200Z,102276.66
2023-05-24T00:19:04.216Z,102277.00
2023-05-24T00:21:32.183Z,102279.66
2023-05-24T00:23:59.408Z,102278.97
2023-05-24T00:26:26.736Z,102276.50
2023-05-24T00:28:53.786Z,102270.09
2023-05-24T00:31:20.891Z,102273.03
2023-05-24T00:33:47.947Z,102262.34
2023-05-24T00:36:14.864Z,102264.16
2023-05-24T00:38:41.919Z,102269.75
2023-05-24T00:41:08.872Z,102268.94
2023-05-24T00:43:36.890Z,102267.31
2023-05-24T00:46:34.080Z,102258.22
2023-05-24T00:49:02.049Z,102261.00
2023-05-24T00:51:29.283Z,102258.63
2023-05-24T00:53:56.995Z,102257.56
2023-05-24T00:56:24.069Z,102267.75
2023-05-24T00:58:54.796Z,102262.59
2023-05-24T01:01:25.904Z,102271.28
2023-05-24T01:03:54.670Z,102259.06
2023-05-24T01:06:23.590Z,102256.97
2023-05-24T01:09:17.692Z,102265.38
2023-05-24T01:12:22.143Z,102261.78
2023-05-24T01:14:54.718Z,102258.84
2023-05-24T01:17:27.802Z,102248.31
2023-05-24T01:20:02.489Z,102262.91
2023-05-24T01:23:17.221Z,102259.59
2023-05-24T01:25:52.895Z,102261.53
2023-05-24T01:28:20.630Z,102251.97
2023-05-24T01:30:48.267Z,102245.94
2023-05-24T01:33:15.517Z,102254.16
2023-05-24T01:35:42.823Z,102254.72
2023-05-24T01:38:13.162Z,102250.69
2023-05-24T01:40:41.504Z,102249.84
2023-05-24T01:43:31.794Z,102251.44
2023-05-24T01:46:20.361Z,102250.03
2023-05-24T01:49:18.031Z,102250.19
2023-05-24T01:51:59.855Z,102243.81
2023-05-24T01:54:32.082Z,102249.59
2023-05-24T01:57:00.218Z,102251.75
2023-05-24T01:59:30.299Z,102249.78
2023-05-24T02:01:57.890Z,102242.84
2023-05-24T02:04:25.438Z,102236.91
2023-05-24T02:06:52.459Z,102249.19
2023-05-24T02:09:19.395Z,102239.72
2023-05-24T02:11:46.437Z,102243.38
2023-05-24T02:14:13.443Z,102249.97
2023-05-24T02:16:42.704Z,102242.66
2023-05-24T02:19:10.005Z,102239.53
2023-05-24T02:21:36.981Z,102239.91
2023-05-24T02:24:04.125Z,102233.78
2023-05-24T02:26:31.094Z,102228.88
2023-05-24T02:28:58.007Z,102233.69
2023-05-24T02:31:28.799Z,102224.00
2023-05-24T02:33:57.241Z,102238.31
2023-05-24T02:36:24.673Z,102250.56
2023-05-24T02:38:52.027Z,102253.56
2023-05-24T02:41:19.859Z,102248.31
2023-05-24T02:43:47.920Z,102242.31
2023-05-24T02:46:15.639Z,102240.50
2023-05-24T02:48:42.676Z,102235.81
2023-05-24T02:51:09.593Z,102237.69
2023-05-24T02:53:36.626Z,102251.41
2023-05-24T02:56:03.691Z,102250.09
2023-05-24T02:58:30.697Z,102244.06
2023-05-24T03:00:57.652Z,102239.19
2023-05-24T03:03:24.858Z,102240.13
2023-05-24T03:05:52.036Z,102231.38
2023-05-24T03:08:19.459Z,102230.13
2023-05-24T03:10:53.856Z,102234.25
2023-05-24T03:13:20.907Z,102235.28
2023-05-24T03:15:48.387Z,102232.88
2023-05-24T03:18:15.431Z,102233.34
2023-05-24T03:20:42.658Z,102224.66
2023-05-24T03:23:28.527Z,102238.13
2023-05-24T03:25:55.730Z,102245.47
2023-05-24T03:28:22.721Z,102244.84
2023-05-24T03:30:49.760Z,102242.34
2023-05-24T03:33:16.848Z,102238.34
2023-05-24T03:35:43.752Z,102237.38
2023-05-24T03:38:11.025Z,102237.78
2023-05-24T03:40:38.504Z,102237.66
2023-05-24T03:43:05.518Z,102233.81
2023-05-24T03:45:39.428Z,102236.13
2023-05-24T03:48:07.523Z,102245.78
2023-05-24T03:50:34.966Z,102250.06
2023-05-24T03:53:01.876Z,102253.66
2023-05-24T03:55:28.809Z,102244.19
2023-05-24T03:57:55.787Z,102244.09
2023-05-24T04:00:22.809Z,102244.59
2023-05-24T04:02:50.046Z,102248.94
2023-05-24T04:05:18.199Z,102241.19
2023-05-24T04:07:46.430Z,102242.88
2023-05-24T04:10:13.653Z,102246.09
2023-05-24T04:12:42.122Z,102243.91
2023-05-24T04:15:09.963Z,102248.25
2023-05-24T04:17:37.351Z,102247.66
2023-05-24T04:20:06.003Z,102254.38
2023-05-24T04:22:32.986Z,102246.09
2023-05-24T04:25:00.325Z,102250.16
2023-05-24T04:27:27.560Z,102254.56
2023-05-24T04:29:54.563Z,102254.09
2023-05-24T04:32:21.658Z,102258.59
2023-05-24T04:34:48.740Z,102261.69
2023-05-24T04:37:17.281Z,102263.50
2023-05-24T04:39:45.721Z,102259.06
2023-05-24T04:42:13.659Z,102263.66
2023-05-24T04:44:41.487Z,102267.34
2023-05-24T04:47:09.839Z,102261.56
2023-05-24T04:49:36.824Z,102266.06
2023-05-24T04:52:03.982Z,102263.31
2023-05-24T04:54:30.983Z,102260.63
2023-05-24T04:56:57.957Z,102248.81
2023-05-24T04:59:25.228Z,102253.34
2023-05-24T05:01:52.225Z,102257.47
2023-05-24T05:04:19.246Z,102254.50
2023-05-24T05:06:47.633Z,102253.59
2023-05-24T05:09:15.805Z,102240.38
2023-05-24T05:11:43.321Z,102241.41
2023-05-24T05:14:10.500Z,102241.03
2023-05-24T05:16:41.971Z,102242.38
2023-05-24T05:19:09.023Z,102243.59
2023-05-24T05:21:36.699Z,102240.38
2023-05-24T05:24:04.234Z,102239.19
2023-05-24T05:26:31.539Z,102247.66
2023-05-24T05:28:58.876Z,102255.00
2023-05-24T05:31:26.151Z,102245.72
2023-05-24T05:33:53.255Z,102235.91
2023-05-24T05:36:20.175Z,102242.69
2023-05-24T05:38:47.163Z,102243.06
2023-05-24T05:41:14.122Z,102244.38
2023-05-24T05:43:41.061Z,102227.19
2023-05-24T05:46:08.242Z,102240.88
2023-05-24T05:48:35.467Z,102245.81
2023-05-24T05:51:02.449Z,102257.47
2023-05-24T05:53:29.405Z,102261.97
2023-05-24T05:55:56.607Z,102251.25
2023-05-24T05:58:23.611Z,102263.34
2023-05-24T06:00:51.064Z,102268.16
2023-05-24T06:03:18.399Z,102270.06
2023-05-24T06:05:45.600Z,102262.56
2023-05-24T06:08:12.520Z,102277.28
2023-05-24T06:10:39.494Z,102277.72
2023-05-24T06:13:06.500Z,102275.72
2023-05-24T06:15:34.475Z,102268.50
2023-05-24T06:18:02.441Z,102271.75
2023-05-24T06:20:29.547Z,102281.94
2023-05-24T06:22:57.405Z,102279.69
2023-05-24T06:25:24.612Z,102278.41
2023-05-24T06:27:51.856Z,102283.63
2023-05-24T06:30:19.228Z,102288.91
2023-05-24T06:32:46.249Z,102285.22
2023-05-24T06:35:13.679Z,102284.94
2023-05-24T06:37:40.885Z,102279.75
2023-05-24T06:40:11.529Z,102297.03
2023-05-24T06:42:39.463Z,102288.91
2023-05-24T06:45:08.386Z,102295.56
2023-05-24T06:47:36.161Z,102292.88
2023-05-24T06:50:04.745Z,102295.72
2023-05-24T06:52:31.672Z,102304.75
2023-05-24T06:54:58.650Z,102296.66
2023-05-24T06:57:26.782Z,102296.13
2023-05-24T06:59:53.772Z,102302.78
2023-05-24T07:02:26.623Z,102293.75
2023-05-24T07:04:54.213Z,102299.16
2023-05-24T07:07:21.433Z,102296.66
2023-05-24T07:09:48.436Z,102310.00
2023-05-24T07:12:15.428Z,102297.78
2023-05-24T07:14:42.776Z,102291.91
2023-05-24T07:17:09.960Z,102297.97
2023-05-24T07:19:37.197Z,102296.22
2023-05-24T07:22:04.226Z,102297.63
2023-05-24T07:24:31.354Z,102301.53
2023-05-24T07:26:58.380Z,102299.53
2023-05-24T07:29:26.159Z,102304.28
2023-05-24T07:31:56.431Z,102302.38
2023-05-24T07:34:27.390Z,102296.19
2023-05-24T07:36:54.417Z,102311.34
2023-05-24T07:39:21.444Z,102296.44
2023-05-24T07:41:48.400Z,102294.88
2023-05-24T07:44:15.791Z,102298.44
2023-05-24T07:46:42.810Z,102300.47
2023-05-24T07:49:09.781Z,102298.78
2023-05-24T07:51:36.990Z,102307.47
2023-05-24T07:54:04.067Z,102299.72
2023-05-24T07:56:32.157Z,102305.41
2023-05-24T07:59:05.109Z,102294.47
2023-05-24T08:01:34.417Z,102285.97
2023-05-24T08:04:04.269Z,102282.09
2023-05-24T08:06:32.843Z,102299.81
2023-05-24T08:08:59.892Z,102292.75
2023-05-24T08:11:27.483Z,102293.16
2023-05-24T08:13:54.417Z,102292.88
2023-05-24T08:16:21.499Z,102297.31
2023-05-24T08:18:48.497Z,102299.47
2023-05-24T08:21:15.655Z,102304.25
2023-05-24T08:23:42.914Z,102295.59
2023-05-24T08:26:09.897Z,102293.06
2023-05-24T08:28:37.010Z,102292.25
2023-05-24T08:31:04.470Z,102300.00
2023-05-24T08:33:32.254Z,102295.94
2023-05-24T08:35:59.189Z,102294.41
2023-05-24T08:38:26.268Z,102298.28
2023-05-24T08:40:53.466Z,102312.38
2023-05-24T08:43:21.559Z,102303.28
2023-05-24T08:45:50.033Z,102299.69
2023-05-24T08:48:18.715Z,102295.00
2023-05-24T08:50:46.589Z,102306.38
2023-05-24T08:53:14.601Z,102311.91
2023-05-24T08:55:44.053Z,102304.94
2023-05-24T08:58:11.652Z,102307.63
2023-05-24T09:00:38.571Z,102317.50
2023-05-24T09:03:06.841Z,102309.72
2023-05-24T09:05:34.757Z,102316.69
2023-05-24T09:08:02.994Z,102302.44
2023-05-24T09:10:44.901Z,102301.28
2023-05-24T09:13:19.915Z,102300.25
2023-05-24T09:15:47.061Z,102304.59
2023-05-24T09:18:14.130Z,102299.41
2023-05-24T09:20:41.481Z,102293.84
2023-05-24T09:23:09.602Z,102293.09
2023-05-24T09:25:36.670Z,102296.78
2023-05-24T09:28:10.227Z,102289.31
2023-05-24T09:30:37.337Z,102287.41
2023-05-24T09:33:08.433Z,102289.25
2023-05-24T09:35:36.976Z,102279.50
2023-05-24T09:38:04.055Z,102288.97
2023-05-24T09:40:31.089Z,102274.53
2023-05-24T09:43:09.941Z,102269.16
2023-05-24T09:45:49.069Z,102273.59
2023-05-24T09:48:17.520Z,102280.81
2023-05-24T09:50:47.772Z,102282.81
2023-05-24T09:53:19.244Z,102280.63
2023-05-24T09:55:46.392Z,102276.34
2023-05-24T09:58:13.853Z,102281.34
2023-05-24T10:00:42.292Z,102265.88
2023-05-24T10:03:11.976Z,102270.06
2023-05-24T10:05:42.942Z,102270.56
2023-05-24T10:08:11.747Z,102269.34
2023-05-24T10:10:38.669Z,102265.31
2023-05-24T10:13:05.838Z,102272.38
2023-05-24T10:15:32.814Z,102269.06
2023-05-24T10:18:01.996Z,102267.72
2023-05-24T10:20:29.878Z,102258.34
2023-05-24T10:23:04.079Z,102253.84
2023-05-24T10:25:35.238Z,102265.38
2023-05-24T10:28:08.594Z,102266.88
2023-05-24T10:30:53.057Z,102252.19
2023-05-24T10:33:21.865Z,102247.69
2023-05-24T10:35:49.203Z,102250.94
2023-05-24T10:38:16.693Z,102254.97
2023-05-24T10:40:43.965Z,102264.13
2023-05-24T10:43:11.161Z,102252.22
2023-05-24T10:45:40.505Z,102243.69
2023-05-24T10:48:13.569Z,102247.09
2023-05-24T10:50:42.081Z,102247.91
2023-05-24T10:53:15.705Z,102251.00
2023-05-24T10:56:09.456Z,102243.41
2023-05-24T10:58:55.402Z,102240.41
2023-05-24T11:01:41.095Z,102239.22
2023-05-24T11:04:16.221Z,102234.75
2023-05-24T11:07:06.270Z,102234.63
2023-05-24T11:09:33.699Z,102237.06
2023-05-24T11:12:07.692Z,102233.19
2023-05-24T11:14:42.448Z,102221.50
2023-05-24T11:17:10.632Z,102223.84
2023-05-24T11:19:46.158Z,102229.84
2023-05-24T11:22:17.793Z,102226.53
2023-05-24T11:24:45.709Z,102227.78
2023-05-24T11:27:14.293Z,102231.41
2023-05-24T11:29:46.342Z,102224.25
2023-05-24T11:32:22.007Z,102233.56
2023-05-24T11:34:49.909Z,102235.41
2023-05-24T11:37:18.589Z,102223.00
2023-05-24T11:39:54.272Z,102218.03
2023-05-24T11:42:23.414Z,102213.06
2023-05-24T11:44:52.068Z,102209.13
2023-05-24T11:47:22.459Z,102223.16
2023-05-24T11:49:52.783Z,102208.28
2023-05-24T11:52:20.577Z,102210.00
2023-05-24T11:54:49.064Z,102206.22
2023-05-24T11:57:19.404Z,102195.97
2023-05-24T11:59:47.038Z,102207.69
2023-05-24T12:02:14.450Z,102205.09
2023-05-24T12:04:41.466Z,102204.63
2023-05-24T12:07:12.582Z,102215.25
2023-05-24T12:09:39.542Z,102208.09
2023-05-24T12:12:07.383Z,102191.47
2023-05-24T12:14:38.745Z,102202.69
2023-05-24T12:17:05.946Z,102189.34
2023-05-24T12:19:37.449Z,102194.72
2023-05-24T12:22:07.229Z,102191.97
2023-05-24T12:24:35.629Z,102193.56
2023-05-24T12:27:08.674Z,102189.16
2023-05-24T12:29:42.065Z,102191.78
2023-05-24T12:32:15.150Z,102182.69
2023-05-24T12:34:44.506Z,102178.56
2023-05-24T12:37:12.791Z,102185.28
2023-05-24T12:39:42.577Z,102175.53
2023-05-24T12:42:12.891Z,102177.16
2023-05-24T12:44:40.441Z,102176.59
2023-05-24T12:47:09.129Z,102172.75
2023-05-24T12:49:36.557Z,102163.97
2023-05-24T12:52:03.920Z,102169.53
2023-05-24T12:54:30.981Z,102163.13
2023-05-24T12:57:03.323Z,102157.28
2023-05-24T12:59:30.515Z,102158.22
2023-05-24T13:01:58.070Z,102147.72
2023-05-24T13:04:28.109Z,102148.63
2023-05-24T13:06:55.516Z,102147.94
2023-05-24T13:09:23.464Z,102144.38
2023-05-24T13:11:51.524Z,102128.50
2023-05-24T13:14:19.783Z,102145.63
2023-05-24T13:16:47.476Z,102131.16
2023-05-24T13:19:14.572Z,102143.59
2023-05-24T13:21:41.702Z,102144.38
2023-05-24T13:24:09.004Z,102143.06
2023-05-24T13:26:45.298Z,102129.41
2023-05-24T13:31:43.136Z,102118.25
2023-05-24T13:34:12.969Z,102120.06
2023-05-24T13:36:39.966Z,102122.28
2023-05-24T13:41:40.360Z,102110.22
2023-05-24T13:44:07.458Z,102110.53
2023-05-24T13:46:36.276Z,102111.06
2023-05-24T13:49:03.708Z,102103.25
2023-05-24T13:51:30.816Z,102094.00
2023-05-24T13:53:57.884Z,102106.53
2023-05-24T13:56:25.988Z,102110.03
2023-05-24T13:58:53.529Z,102113.34
2023-05-24T14:01:20.898Z,102108.28
2023-05-24T14:03:48.021Z,102111.78
2023-05-24T14:06:15.046Z,102108.09
2023-05-24T14:08:42.589Z,102105.25
2023-05-24T14:11:09.603Z,102108.66
2023-05-24T14:16:07.465Z,102117.38
2023-05-24T14:18:35.976Z,102122.94
2023-05-24T14:21:03.690Z,102117.19
2023-05-24T14:23:31.941Z,102114.50
2023-05-24T14:26:02.711Z,102109.84
2023-05-24T14:28:29.710Z,102111.06
2023-05-24T14:30:56.649Z,102109.41
2023-05-24T14:33:23.654Z,102107.84
2023-05-24T14:35:51.728Z,102109.19
2023-05-24T14:38:18.800Z,102102.28
2023-05-24T14:40:48.222Z,102104.38
2023-05-24T14:43:15.414Z,102100.75
2023-05-24T14:45:43.210Z,102096.59
2023-05-24T14:48:11.765Z,102092.69
2023-05-24T14:50:40.785Z,102088.34
2023-05-24T14:53:11.881Z,102095.06
2023-05-24T14:55:41.121Z,102095.69
2023-05-24T14:58:12.062Z,102097.06
2023-05-24T15:00:40.329Z,102093.94
2023-05-24T15:03:08.140Z,102093.72
2023-05-24T15:05:36.476Z,102095.28
2023-05-24T15:08:05.448Z,102096.56
2023-05-24T15:10:33.551Z,102093.63
2023-05-24T15:13:01.422Z,102098.31
2023-05-24T15:15:29.177Z,102094.03
2023-05-24T15:17:57.664Z,102087.34
2023-05-24T15:20:25.923Z,102094.03
2023-05-24T15:22:53.710Z,102099.50
2023-05-24T15:25:21.043Z,102089.28
2023-05-24T15:27:48.400Z,102084.38
2023-05-24T15:30:17.389Z,102096.34
2023-05-24T15:32:46.477Z,102094.56
2023-05-24T15:35:13.720Z,102098.31
2023-05-24T15:37:41.533Z,102098.56
2023-05-24T15:40:11.117Z,102102.50
2023-05-24T15:42:38.159Z,102082.25
2023-05-24T15:45:06.424Z,102099.66
2023-05-24T15:47:39.446Z,102098.25
2023-05-24T15:50:08.857Z,102097.81
2023-05-24T15:52:36.460Z,102090.97
2023-05-24T15:55:03.811Z,102093.81
2023-05-24T15:57:31.478Z,102095.19
2023-05-24T15:59:58.448Z,102085.75
2023-05-24T16:02:25.695Z,102089.50
2023-05-24T16:04:52.810Z,102109.72
2023-05-24T16:07:19.758Z,102102.81
2023-05-24T16:09:47.020Z,102104.88
2023-05-24T16:12:13.998Z,102102.25
2023-05-24T16:14:40.969Z,102095.09
2023-05-24T16:17:08.238Z,102087.47
2023-05-24T16:19:35.253Z,102096.03
2023-05-24T16:22:02.554Z,102095.31
2023-05-24T16:24:29.582Z,102095.88
2023-05-24T16:26:59.424Z,102085.81
2023-05-24T16:29:26.677Z,102099.75
2023-05-24T16:31:53.756Z,102089.47
2023-05-24T16:34:23.576Z,102086.72
2023-05-24T16:36:50.594Z,102084.75
2023-05-24T16:39:17.880Z,102085.22
2023-05-24T16:41:45.058Z,102078.06
2023-05-24T16:44:17.521Z,102082.69
2023-05-24T16:46:45.655Z,102076.91
2023-05-24T16:49:13.252Z,102080.19
2023-05-24T16:51:40.618Z,102076.88
2023-05-24T16:54:08.940Z,102080.84
2023-05-24T16:56:37.869Z,102070.69
2023-05-24T16:59:05.406Z,102075.59
2023-05-24T17:01:32.655Z,102070.47
2023-05-24T17:03:59.914Z,102072.94
2023-05-24T17:06:27.092Z,102083.16
2023-05-24T17:08:54.182Z,102083.16
2023-05-24T17:11:23.085Z,102077.78
2023-05-24T17:13:51.439Z,102073.34
2023-05-24T17:16:18.925Z,102083.91
2023-05-24T17:18:46.247Z,102074.25
2023-05-24T17:21:13.233Z,102069.47
2023-05-24T17:23:40.201Z,102072.78
2023-05-24T17:26:08.213Z,102076.63
2023-05-24T17:28:36.303Z,102078.06
2023-05-24T17:31:04.256Z,102087.22
2023-05-24T17:33:32.246Z,102078.63
2023-05-24T17:36:04.210Z,102077.69
2023-05-24T17:38:37.416Z,102083.06
2023-05-24T17:41:07.815Z,102067.16
2023-05-24T17:43:36.671Z,102083.41
2023-05-24T17:46:06.775Z,102086.13
2023-05-24T17:48:36.809Z,102083.09
2023-05-24T17:51:06.446Z,102092.63
2023-05-24T17:53:35.334Z,102069.38
2023-05-24T17:58:32.787Z,102083.25
2023-05-24T18:00:59.818Z,102083.16
2023-05-24T18:03:26.777Z,102077.41
2023-05-24T18:05:53.800Z,102086.34
2023-05-24T18:08:21.480Z,102078.44
2023-05-24T18:10:48.603Z,102082.84
2023-05-24T18:13:15.679Z,102082.25
2023-05-24T18:15:42.911Z,102086.97
2023-05-24T18:18:10.240Z,102080.63
2023-05-24T18:20:37.355Z,102080.03
2023-05-24T18:23:04.370Z,102086.28
2023-05-24T18:25:31.523Z,102091.63
2023-05-24T18:27:59.052Z,102093.81
2023-05-24T18:30:26.194Z,102095.81
2023-05-24T18:35:30.230Z,102108.53
2023-05-24T18:37:57.155Z,102103.81
2023-05-24T18:40:24.170Z,102107.06
2023-05-24T18:42:51.789Z,102106.06
2023-05-24T18:45:18.830Z,102109.16
2023-05-24T18:47:45.871Z,102109.94
2023-05-24T18:50:12.857Z,102106.44
2023-05-24T18:52:39.956Z,102103.38
2023-05-24T18:55:10.707Z,102116.72
2023-05-24T18:57:38.531Z,102119.63
2023-05-24T19:00:07.350Z,102115.50
2023-05-24T19:02:39.193Z,102110.78
2023-05-24T19:05:08.296Z,102122.47
2023-05-24T19:07:35.921Z,102123.31
2023-05-24T19:10:03.473Z,102121.84
2023-05-24T19:12:30.587Z,102121.44
2023-05-24T19:14:57.519Z,102118.72
2023-05-24T19:17:25.314Z,102120.47
2023-05-24T19:19:52.704Z,102127.94
2023-05-24T19:22:19.868Z,102123.22
2023-05-24T19:24:47.298Z,102122.53
2023-05-24T19:27:14.651Z,102124.59
2023-05-24T19:29:41.714Z,102129.56
2023-05-24T19:32:08.947Z,102135.28
2023-05-24T19:34:37.386Z,102128.03
2023-05-24T19:37:04.720Z,102129.16
2023-05-24T19:39:31.813Z,102124.31
2023-05-24T19:41:58.794Z,102127.50
2023-05-24T19:44:25.794Z,102131.44
2023-05-24T19:46:52.762Z,102140.41
2023-05-24T19:49:19.830Z,102136.50
2023-05-24T19:51:46.929Z,102142.06
2023-05-24T19:54:14.808Z,102146.88
2023-05-24T19:56:41.823Z,102131.75
2023-05-24T19:59:08.791Z,102145.31
2023-05-24T20:01:36.094Z,102145.56
2023-05-24T20:04:03.859Z,102148.66
2023-05-24T20:06:31.453Z,102152.22
2023-05-24T20:08:59.661Z,102157.63
2023-05-24T20:11:26.833Z,102153.16
2023-05-24T20:13:55.827Z,102157.22
2023-05-24T20:16:23.500Z,102153.94
2023-05-24T20:18:50.739Z,102143.59
2023-05-24T20:21:18.979Z,102163.94
2023-05-24T20:23:45.966Z,102161.28
2023-05-24T20:26:13.070Z,102170.41
2023-05-24T20:28:39.980Z,102156.84
2023-05-24T20:31:07.200Z,102162.91
2023-05-24T20:33:38.351Z,102167.38
2023-05-24T20:36:05.976Z,102174.19
2023-05-24T20:38:32.968Z,102177.19
2023-05-24T20:41:00.197Z,102173.25
2023-05-24T20:43:27.174Z,102176.50
2023-05-24T20:45:54.737Z,102177.00
2023-05-24T20:48:21.756Z,102179.47
2023-05-24T20:50:48.784Z,102173.81
2023-05-24T20:53:15.897Z,102184.44
2023-05-24T20:55:43.151Z,102181.25
2023-05-24T20:58:10.685Z,102181.38
2023-05-24T21:00:39.591Z,102176.84
2023-05-24T21:03:07.449Z,102189.84
2023-05-24T21:05:36.515Z,102186.22
2023-05-24T21:08:03.934Z,102177.81
2023-05-24T21:10:32.265Z,102189.31
2023-05-24T21:12:59.660Z,102184.25
2023-05-24T21:15:26.611Z,102172.75
2023-05-24T21:17:53.602Z,102195.91
2023-05-24T21:20:21.083Z,102191.72
2023-05-24T21:22:48.762Z,102197.41
2023-05-24T21:25:15.893Z,102199.13
2023-05-24T21:27:42.863Z,102196.81
2023-05-24T21:30:10.229Z,102202.38
2023-05-24T21:32:37.208Z,102210.66
2023-05-24T21:35:04.586Z,102214.69
2023-05-24T21:37:31.530Z,102208.84
2023-05-24T21:39:58.536Z,102220.97
2023-05-24T21:42:25.540Z,102216.78
2023-05-24T21:44:52.471Z,102217.41
2023-05-24T21:47:19.416Z,102226.75
2023-05-24T21:49:46.341Z,102232.97
2023-05-24T21:52:13.264Z,102236.75
2023-05-24T21:54:40.296Z,102224.38
2023-05-24T21:57:07.448Z,102231.59
2023-05-24T21:59:34.467Z,102237.09
2023-05-24T22:02:01.549Z,102249.81
2023-05-24T22:04:28.505Z,102238.63
2023-05-24T22:06:55.576Z,102247.69
2023-05-24T22:09:22.689Z,102242.38
2023-05-24T22:11:49.667Z,102245.31
2023-05-24T22:14:16.665Z,102243.22
2023-05-24T22:16:43.888Z,102241.69
2023-05-24T22:19:16.660Z,102251.03
2023-05-24T22:21:46.049Z,102256.53
2023-05-24T22:24:13.652Z,102247.78
2023-05-24T22:26:46.691Z,102259.88
2023-05-24T22:29:13.883Z,102258.56
2023-05-24T22:31:41.653Z,102252.97
2023-05-24T22:34:11.207Z,102263.00
2023-05-24T22:36:38.964Z,102259.81
2023-05-24T22:39:06.234Z,102263.97
2023-05-24T22:41:33.209Z,102264.56
2023-05-24T22:44:00.352Z,102261.38
2023-05-24T22:46:27.527Z,102263.16
2023-05-24T22:48:56.620Z,102260.31
2023-05-24T22:51:23.846Z,102265.16
2023-05-24T22:53:52.738Z,102266.06
2023-05-24T22:56:20.252Z,102264.41
2023-05-24T22:58:47.142Z,102264.31
2023-05-24T23:01:16.529Z,102272.91
2023-05-24T23:03:45.035Z,102268.22
2023-05-24T23:06:12.168Z,102270.50
2023-05-24T23:08:39.425Z,102264.09
2023-05-24T23:11:13.269Z,102259.81
2023-05-24T23:13:42.324Z,102267.28
2023-05-24T23:16:09.509Z,102268.72
2023-05-24T23:18:37.825Z,102262.94
2023-05-24T23:21:04.943Z,102261.00
2023-05-24T23:23:31.889Z,102263.03
2023-05-24T23:25:58.908Z,102268.09
2023-05-24T23:28:25.908Z,102266.03
2023-05-24T23:30:53.558Z,102270.66
2023-05-24T23:33:20.802Z,102278.31
2023-05-24T23:35:48.234Z,102275.09
2023-05-24T23:38:15.930Z,102278.53
2023-05-24T23:40:43.136Z,102270.38
2023-05-24T23:43:10.053Z,102270.38
2023-05-24T23:45:36.965Z,102278.03
2023-05-24T23:48:04.192Z,102282.44
2023-05-24T23:50:35.192Z,102269.84
2023-05-24T23:53:09.965Z,102275.72
2023-05-24T23:55:37.006Z,102276.00
2023-05-24T23:58:03.935Z,102281.00
